createdAt,value
2022-11-05T00:00:36.409Z,4.82
2022-11-05T00:03:22.062Z,5.05
2022-11-05T00:06:11.303Z,3.78
2022-11-05T00:08:56.902Z,4.68
2022-11-05T00:11:43.699Z,5.10
2022-11-05T00:14:29.164Z,4.82
2022-11-05T00:16:55.768Z,4.93
2022-11-05T00:19:22.513Z,4.28
2022-11-05T00:22:09.515Z,5.28
2022-11-05T00:24:55.791Z,4.47
2022-11-05T00:27:23.225Z,4.03
2022-11-05T00:29:49.964Z,4.68
2022-11-05T00:32:16.517Z,4.40
2022-11-05T00:34:43.076Z,4.90
2022-11-05T00:37:09.802Z,5.03
2022-11-05T00:39:36.436Z,5.75
2022-11-05T00:42:26.337Z,5.20
2022-11-05T00:45:01.506Z,5.53
2022-11-05T00:47:51.172Z,5.00
2022-11-05T00:50:21.361Z,5.07
2022-11-05T00:52:55.557Z,5.88
2022-11-05T00:55:28.733Z,5.65
2022-11-05T00:58:00.700Z,6.07
2022-11-05T01:03:01.766Z,6.32
2022-11-05T01:05:34.029Z,5.70
2022-11-05T01:08:04.677Z,5.20
2022-11-05T01:10:31.579Z,5.85
2022-11-05T01:12:59.055Z,5.80
2022-11-05T01:15:25.641Z,5.18
2022-11-05T01:17:52.501Z,5.38
2022-11-05T01:20:19.147Z,5.70
2022-11-05T01:22:45.635Z,4.88
2022-11-05T01:25:12.310Z,5.25
2022-11-05T01:27:39.167Z,5.25
2022-11-05T01:30:07.980Z,4.97
2022-11-05T01:32:36.247Z,4.53
2022-11-05T01:35:07.187Z,5.03
2022-11-05T01:37:35.079Z,5.85
2022-11-05T01:40:02.169Z,6.07
2022-11-05T01:42:32.417Z,5.43
2022-11-05T01:45:04.000Z,6.00
2022-11-05T01:47:49.063Z,6.28
2022-11-05T01:50:27.321Z,5.70
2022-11-05T01:53:00.802Z,5.68
2022-11-05T01:55:31.498Z,5.53
2022-11-05T01:58:00.421Z,5.95
2022-11-05T02:00:28.138Z,6.05
2022-11-05T02:02:54.884Z,6.30
2022-11-05T02:05:22.250Z,5.18
2022-11-05T02:07:49.676Z,5.97
2022-11-05T02:10:18.128Z,5.03
2022-11-05T02:12:48.549Z,5.32
2022-11-05T02:15:35.742Z,6.18
2022-11-05T02:18:04.944Z,5.10
2022-11-05T02:20:54.408Z,4.30
2022-11-05T02:23:58.527Z,6.50
2022-11-05T02:26:37.301Z,6.00
2022-11-05T02:29:29.388Z,4.32
2022-11-05T02:32:04.989Z,6.88
2022-11-05T02:34:37.493Z,6.20
2022-11-05T02:37:15.622Z,5.80
2022-11-05T02:40:11.501Z,6.57
2022-11-05T02:42:56.763Z,6.65
2022-11-05T02:45:41.812Z,6.30
2022-11-05T02:48:24.462Z,6.82
2022-11-05T02:51:25.243Z,6.45
2022-11-05T02:54:01.925Z,7.28
2022-11-05T02:56:39.329Z,7.05
2022-11-05T02:59:05.825Z,7.95
2022-11-05T03:01:32.514Z,6.03
2022-11-05T03:04:04.835Z,6.60
2022-11-05T03:06:52.707Z,7.22
2022-11-05T03:09:38.018Z,6.72
2022-11-05T03:12:16.836Z,6.55
2022-11-05T03:15:01.911Z,7.55
2022-11-05T03:17:36.878Z,5.55
2022-11-05T03:20:24.113Z,5.88
2022-11-05T03:23:26.379Z,7.97
2022-11-05T03:26:05.525Z,6.00
2022-11-05T03:28:35.613Z,6.40
2022-11-05T03:31:04.628Z,7.57
2022-11-05T03:33:38.545Z,7.97
2022-11-05T03:36:16.248Z,7.63
2022-11-05T03:38:46.892Z,6.55
2022-11-05T03:41:17.429Z,7.80
2022-11-05T03:43:50.862Z,7.07
2022-11-05T03:46:24.627Z,7.95
2022-11-05T03:48:55.835Z,7.05
2022-11-05T03:51:32.056Z,7.38
2022-11-05T03:54:01.155Z,7.68
2022-11-05T03:56:38.692Z,6.72
2022-11-05T03:59:07.674Z,7.95
2022-11-05T04:01:36.996Z,8.07
2022-11-05T04:04:07.897Z,7.53
2022-11-05T04:06:53.840Z,6.72
2022-11-05T04:09:41.150Z,7.82
2022-11-05T04:12:29.199Z,7.43
2022-11-05T04:14:56.284Z,7.80
2022-11-05T04:17:22.839Z,8.35
2022-11-05T04:20:10.925Z,7.93
2022-11-05T04:23:01.836Z,6.82
2022-11-05T04:25:37.703Z,7.97
2022-11-05T04:28:06.386Z,7.32
2022-11-05T04:30:41.657Z,6.40
2022-11-05T04:33:12.322Z,7.05
2022-11-05T04:35:42.981Z,7.25
2022-11-05T04:38:13.329Z,7.32
2022-11-05T04:40:40.664Z,7.07
2022-11-05T04:43:15.056Z,7.35
2022-11-05T04:45:44.818Z,6.47
2022-11-05T04:48:13.444Z,7.63
2022-11-05T04:50:40.118Z,6.00
2022-11-05T04:53:06.913Z,5.35
2022-11-05T04:55:35.434Z,7.53
2022-11-05T04:58:02.044Z,7.60
2022-11-05T05:00:28.794Z,6.97
2022-11-05T05:02:55.410Z,7.32
2022-11-05T05:05:23.197Z,6.70
2022-11-05T05:07:49.989Z,8.05
2022-11-05T05:10:16.852Z,8.00
2022-11-05T05:12:43.566Z,8.23
2022-11-05T05:15:10.526Z,7.88
2022-11-05T05:17:37.154Z,7.80
2022-11-05T05:20:22.620Z,7.28
2022-11-05T05:22:55.694Z,6.72
2022-11-05T05:25:22.728Z,7.20
2022-11-05T05:27:49.372Z,7.55
2022-11-05T05:30:16.154Z,7.28
2022-11-05T05:32:44.831Z,7.07
2022-11-05T05:35:16.013Z,6.70
2022-11-05T05:37:43.007Z,6.30
2022-11-05T05:40:10.303Z,7.15
2022-11-05T05:42:42.684Z,6.95
2022-11-05T05:45:12.132Z,6.20
2022-11-05T05:47:38.872Z,7.13
2022-11-05T05:50:05.870Z,6.85
2022-11-05T05:52:34.517Z,6.07
2022-11-05T05:55:03.914Z,6.18
2022-11-05T05:57:31.882Z,6.32
2022-11-05T06:00:01.983Z,6.60
2022-11-05T06:02:32.720Z,6.32
2022-11-05T06:04:59.703Z,6.40
2022-11-05T06:07:26.350Z,6.72
2022-11-05T06:09:52.956Z,7.00
2022-11-05T06:12:19.438Z,6.72
2022-11-05T06:14:45.946Z,5.75
2022-11-05T06:17:15.771Z,6.05
2022-11-05T06:19:44.443Z,6.13
2022-11-05T06:22:11.243Z,6.28
2022-11-05T06:24:38.153Z,6.68
2022-11-05T06:27:05.053Z,6.20
2022-11-05T06:29:31.609Z,5.63
2022-11-05T06:31:58.058Z,5.28
2022-11-05T06:34:24.629Z,6.30
2022-11-05T06:36:51.202Z,5.20
2022-11-05T06:39:17.689Z,6.22
2022-11-05T06:42:12.027Z,6.40
2022-11-05T06:44:31.227Z,6.05
2022-11-05T06:46:59.814Z,6.22
2022-11-05T06:49:26.606Z,5.95
2022-11-05T06:51:55.907Z,5.28
2022-11-05T06:54:22.384Z,6.38
2022-11-05T06:56:48.834Z,6.20
2022-11-05T06:59:15.634Z,6.32
2022-11-05T07:01:42.407Z,6.00
2022-11-05T07:04:08.966Z,5.38
2022-11-05T07:06:37.095Z,4.75
2022-11-05T07:09:04.465Z,5.05
2022-11-05T07:11:42.809Z,5.78
2022-11-05T07:14:09.316Z,6.10
2022-11-05T07:16:35.905Z,5.15
2022-11-05T07:19:02.731Z,4.78
2022-11-05T07:21:29.481Z,5.13
2022-11-05T07:23:55.962Z,5.35
2022-11-05T07:26:22.440Z,4.38
2022-11-05T07:28:48.981Z,4.03
2022-11-05T07:31:15.614Z,4.07
2022-11-05T07:33:42.173Z,4.05
2022-11-05T07:36:09.074Z,4.28
2022-11-05T07:38:35.613Z,3.85
2022-11-05T07:41:02.152Z,3.75
2022-11-05T07:43:28.712Z,3.50
2022-11-05T07:45:55.229Z,4.13
2022-11-05T07:48:21.770Z,4.20
2022-11-05T07:50:56.954Z,4.20
2022-11-05T07:53:23.492Z,3.40
2022-11-05T07:55:52.578Z,4.00
2022-11-05T07:58:25.154Z,4.03
2022-11-05T08:00:51.807Z,4.38
2022-11-05T08:03:19.432Z,3.88
2022-11-05T08:05:48.093Z,3.60
2022-11-05T08:08:17.248Z,3.50
2022-11-05T08:10:44.185Z,3.55
2022-11-05T08:13:12.070Z,3.05
2022-11-05T08:15:39.342Z,3.70
2022-11-05T08:18:09.085Z,3.97
2022-11-05T08:20:36.958Z,3.45
2022-11-05T08:23:03.570Z,3.70
2022-11-05T08:25:35.254Z,3.30
2022-11-05T08:28:04.612Z,3.92
2022-11-05T08:30:32.321Z,3.45
2022-11-05T08:33:04.296Z,3.55
2022-11-05T08:38:02.781Z,3.50
2022-11-05T08:40:31.555Z,3.50
2022-11-05T08:43:04.537Z,3.78
2022-11-05T08:45:32.052Z,2.95
2022-11-05T08:47:59.917Z,3.22
2022-11-05T08:50:29.438Z,3.60
2022-11-05T08:52:59.913Z,3.05
2022-11-05T08:55:29.205Z,3.47
2022-11-05T08:58:04.856Z,3.08
2022-11-05T09:00:34.417Z,3.00
2022-11-05T09:03:02.743Z,3.42
2022-11-05T09:05:31.227Z,3.28
2022-11-05T09:08:01.338Z,2.92
2022-11-05T09:10:29.081Z,2.72
2022-11-05T09:12:56.205Z,3.42
2022-11-05T09:15:23.531Z,2.88
2022-11-05T09:17:53.309Z,2.95
2022-11-05T09:20:19.851Z,3.30
2022-11-05T09:22:49.944Z,3.30
2022-11-05T09:25:16.703Z,2.97
2022-11-05T09:27:44.030Z,3.00
2022-11-05T09:30:14.903Z,3.30
2022-11-05T09:32:42.187Z,2.92
2022-11-05T09:35:10.033Z,2.90
2022-11-05T09:37:40.046Z,2.92
2022-11-05T09:40:07.248Z,3.00
2022-11-05T09:42:50.281Z,3.22
2022-11-05T09:45:22.579Z,3.13
2022-11-05T09:48:01.381Z,3.15
2022-11-05T09:50:35.994Z,3.08
2022-11-05T09:53:04.575Z,3.15
2022-11-05T09:55:41.407Z,2.47
2022-11-05T09:58:22.122Z,3.33
2022-11-05T10:00:57.237Z,3.10
2022-11-05T10:03:28.125Z,3.17
2022-11-05T10:06:05.961Z,2.85
2022-11-05T10:08:38.593Z,3.03
2022-11-05T10:11:16.556Z,3.08
2022-11-05T10:13:51.484Z,3.20
2022-11-05T10:16:28.735Z,2.60
2022-11-05T10:19:07.450Z,3.08
2022-11-05T10:22:05.641Z,3.03
2022-11-05T10:24:29.745Z,3.10
2022-11-05T10:26:57.487Z,2.70
2022-11-05T10:29:30.340Z,2.08
2022-11-05T10:31:59.109Z,2.60
2022-11-05T10:34:34.904Z,2.33
2022-11-05T10:37:01.958Z,2.83
2022-11-05T10:39:36.349Z,2.90
2022-11-05T10:42:24.342Z,2.30
2022-11-05T10:45:06.921Z,2.58
2022-11-05T10:47:52.396Z,2.70
2022-11-05T10:50:23.706Z,1.88
2022-11-05T10:52:55.984Z,2.20
2022-11-05T10:55:28.422Z,2.55
2022-11-05T10:58:01.322Z,2.17
2022-11-05T11:00:28.549Z,2.65
2022-11-05T11:03:01.255Z,2.03
2022-11-05T11:05:34.002Z,1.48
2022-11-05T11:08:12.388Z,1.73
2022-11-05T11:10:50.420Z,2.00
2022-11-05T11:13:26.177Z,1.70
2022-11-05T11:15:53.590Z,2.00
2022-11-05T11:18:41.745Z,1.65
2022-11-05T11:21:27.215Z,2.10
2022-11-05T11:23:54.831Z,2.13
2022-11-05T11:26:24.739Z,1.95
2022-11-05T11:29:26.348Z,2.30
2022-11-05T11:32:01.044Z,2.72
2022-11-05T11:34:35.042Z,2.85
2022-11-05T11:37:12.904Z,2.42
2022-11-05T11:39:54.686Z,2.45
2022-11-05T11:42:33.928Z,2.97
2022-11-05T11:45:09.169Z,1.75
2022-11-05T11:47:35.838Z,1.80
2022-11-05T11:50:03.131Z,2.03
2022-11-05T11:52:35.698Z,2.00
2022-11-05T11:55:22.695Z,2.35
2022-11-05T11:57:52.331Z,1.67
2022-11-05T12:00:20.807Z,1.92
2022-11-05T12:03:18.979Z,1.95
2022-11-05T12:06:01.736Z,1.80
2022-11-05T12:09:06.225Z,2.05
2022-11-05T12:11:52.483Z,1.58
2022-11-05T12:14:46.190Z,1.23
2022-11-05T12:17:21.972Z,1.52
2022-11-05T12:19:51.318Z,1.60
2022-11-05T12:22:17.836Z,2.10
2022-11-05T12:25:02.499Z,1.80
2022-11-05T12:27:37.839Z,1.88
2022-11-05T12:30:20.092Z,1.80
2022-11-05T12:33:08.882Z,1.55
2022-11-05T12:35:58.271Z,1.90
2022-11-05T12:38:43.598Z,1.77
2022-11-05T12:41:52.850Z,1.48
2022-11-05T12:45:02.426Z,2.08
2022-11-05T12:47:31.911Z,1.40
2022-11-05T12:50:16.799Z,1.33
2022-11-05T12:53:31.074Z,2.67
2022-11-05T12:56:02.541Z,1.50
2022-11-05T12:58:35.762Z,1.38
2022-11-05T13:01:15.964Z,1.15
2022-11-05T13:03:47.032Z,1.15
2022-11-05T13:06:17.329Z,1.40
2022-11-05T13:08:47.995Z,1.40
2022-11-05T13:11:20.552Z,0.90
2022-11-05T13:14:18.366Z,1.27
2022-11-05T13:16:50.722Z,1.40
2022-11-05T13:19:33.213Z,1.20
2022-11-05T13:22:14.655Z,1.27
2022-11-05T13:24:50.330Z,1.00
2022-11-05T13:27:25.728Z,1.00
2022-11-05T13:30:07.193Z,1.40
2022-11-05T13:32:41.334Z,1.10
2022-11-05T13:35:17.204Z,1.60
2022-11-05T13:38:06.021Z,2.25
2022-11-05T13:40:49.171Z,2.60
2022-11-05T13:43:40.991Z,1.40
2022-11-05T13:46:51.288Z,1.20
2022-11-05T13:49:41.734Z,1.70
2022-11-05T13:52:31.885Z,1.27
2022-11-05T13:55:15.358Z,1.35
2022-11-05T13:57:57.812Z,1.40
2022-11-05T14:00:29.242Z,1.17
2022-11-05T14:03:14.197Z,1.27
2022-11-05T14:05:43.049Z,1.20
2022-11-05T14:08:12.829Z,1.20
2022-11-05T14:10:47.589Z,1.40
2022-11-05T14:13:31.943Z,1.65
2022-11-05T14:16:09.125Z,1.23
2022-11-05T14:18:44.610Z,1.45
2022-11-05T14:21:32.872Z,3.80
2022-11-05T14:24:27.903Z,2.00
2022-11-05T14:27:03.472Z,1.27
2022-11-05T14:29:56.505Z,1.55
2022-11-05T14:32:44.130Z,1.60
2022-11-05T14:35:16.981Z,2.92
2022-11-05T14:38:27.073Z,2.15
2022-11-05T14:41:04.011Z,1.50
2022-11-05T14:43:34.047Z,1.88
2022-11-05T14:46:10.657Z,1.40
2022-11-05T14:48:37.652Z,1.58
2022-11-05T14:51:38.132Z,1.30
2022-11-05T14:54:07.090Z,1.40
2022-11-05T14:56:56.354Z,1.52
2022-11-05T14:59:29.235Z,1.50
2022-11-05T15:02:03.853Z,1.80
2022-11-05T15:04:37.111Z,1.45
2022-11-05T15:07:03.766Z,2.00
2022-11-05T15:09:59.746Z,1.60
2022-11-05T15:12:46.699Z,1.33
2022-11-05T15:15:21.422Z,1.60
2022-11-05T15:17:51.321Z,1.65
2022-11-05T15:20:22.182Z,1.52
2022-11-05T15:22:55.174Z,1.42
2022-11-05T15:25:31.149Z,1.50
2022-11-05T15:28:10.138Z,2.05
2022-11-05T15:30:37.130Z,1.63
2022-11-05T15:33:21.291Z,1.80
2022-11-05T15:35:47.963Z,1.25
2022-11-05T15:38:26.417Z,1.55
2022-11-05T15:41:24.314Z,1.35
2022-11-05T15:43:51.609Z,1.17
2022-11-05T15:46:30.243Z,1.25
2022-11-05T15:49:06.605Z,1.55
2022-11-05T15:51:33.750Z,1.17
2022-11-05T15:56:58.146Z,1.38
2022-11-05T15:59:27.199Z,1.40
2022-11-05T16:02:02.130Z,1.23
2022-11-05T16:04:35.224Z,1.48
2022-11-05T16:07:13.493Z,1.58
2022-11-05T16:09:43.915Z,1.38
2022-11-05T16:12:24.203Z,1.38
2022-11-05T16:15:00.137Z,1.58
2022-11-05T16:17:31.421Z,1.42
2022-11-05T16:19:58.157Z,1.25
2022-11-05T16:22:44.129Z,1.80
2022-11-05T16:25:31.264Z,1.42
2022-11-05T16:27:59.910Z,1.95
2022-11-05T16:30:26.822Z,1.73
2022-11-05T16:32:54.105Z,1.40
2022-11-05T16:35:23.414Z,1.70
2022-11-05T16:37:52.396Z,2.13
2022-11-05T16:40:25.527Z,2.30
2022-11-05T16:42:57.660Z,2.22
2022-11-05T16:45:25.436Z,2.70
2022-11-05T16:47:55.101Z,2.85
2022-11-05T16:50:32.646Z,2.58
2022-11-05T16:52:59.269Z,2.45
2022-11-05T16:55:26.741Z,2.85
2022-11-05T16:57:55.755Z,2.47
2022-11-05T17:00:29.884Z,2.40
2022-11-05T17:02:56.597Z,2.85
2022-11-05T17:05:29.400Z,3.22
2022-11-05T17:07:56.734Z,2.90
2022-11-05T17:10:26.135Z,2.97
2022-11-05T17:12:53.889Z,3.05
2022-11-05T17:15:26.867Z,3.75
2022-11-05T17:17:56.079Z,3.70
2022-11-05T17:20:28.984Z,4.35
2022-11-05T17:22:57.725Z,4.50
2022-11-05T17:25:25.929Z,4.50
2022-11-05T17:27:54.449Z,5.05
2022-11-05T17:30:22.043Z,5.65
2022-11-05T17:32:49.728Z,5.28
2022-11-05T17:35:16.562Z,4.78
2022-11-05T17:37:43.088Z,5.20
2022-11-05T17:40:14.249Z,5.15
2022-11-05T17:42:40.725Z,5.72
2022-11-05T17:45:07.893Z,6.15
2022-11-05T17:47:34.651Z,5.88
2022-11-05T17:50:01.116Z,6.50
2022-11-05T17:52:28.881Z,6.47
2022-11-05T17:54:55.515Z,8.73
2022-11-05T17:57:25.112Z,7.60
2022-11-05T17:59:51.764Z,5.93
2022-11-05T18:02:18.507Z,6.88
2022-11-05T18:04:45.644Z,6.25
2022-11-05T18:07:16.562Z,7.03
2022-11-05T18:09:43.509Z,7.10
2022-11-05T18:12:12.398Z,7.50
2022-11-05T18:14:39.115Z,7.82
2022-11-05T18:17:05.626Z,7.72
2022-11-05T18:19:32.394Z,7.40
2022-11-05T18:25:44.115Z,8.40
2022-11-05T18:28:14.431Z,8.98
2022-11-05T18:30:42.042Z,9.25
2022-11-05T18:33:09.477Z,8.98
2022-11-05T18:35:45.556Z,8.07
2022-11-05T18:38:14.320Z,9.68
2022-11-05T18:40:42.474Z,9.43
2022-11-05T18:43:11.775Z,9.77
2022-11-05T18:45:38.934Z,10.60
2022-11-05T18:48:06.616Z,8.93
2022-11-05T18:50:33.430Z,8.70
2022-11-05T18:53:00.313Z,8.05
2022-11-05T18:55:27.133Z,7.85
2022-11-05T18:57:57.865Z,8.10
2022-11-05T19:00:34.494Z,7.80
2022-11-05T19:03:03.849Z,6.88
2022-11-05T19:05:30.667Z,7.13
2022-11-05T19:07:57.954Z,8.10
2022-11-05T19:10:25.129Z,8.60
2022-11-05T19:12:52.258Z,7.82
2022-11-05T19:15:21.392Z,8.13
2022-11-05T19:17:48.111Z,6.80
2022-11-05T19:20:15.147Z,7.30
2022-11-05T19:22:44.930Z,7.82
2022-11-05T19:25:14.562Z,7.20
2022-11-05T19:27:42.617Z,8.30
2022-11-05T19:30:09.755Z,7.97
2022-11-05T19:32:36.276Z,6.60
2022-11-05T19:35:02.860Z,8.40
2022-11-05T19:37:29.390Z,7.65
2022-11-05T19:39:55.885Z,7.63
2022-11-05T19:42:22.426Z,7.35
2022-11-05T19:44:51.122Z,7.10
2022-11-05T19:47:17.873Z,7.70
2022-11-05T19:49:45.970Z,7.80
2022-11-05T19:52:16.561Z,8.35
2022-11-05T19:54:46.284Z,8.07
2022-11-05T19:57:13.382Z,8.38
2022-11-05T19:59:42.686Z,8.05
2022-11-05T20:02:16.262Z,7.50
2022-11-05T20:04:43.285Z,8.02
2022-11-05T20:07:12.828Z,7.43
2022-11-05T20:09:39.435Z,7.88
2022-11-05T20:12:06.253Z,7.38
2022-11-05T20:14:35.871Z,7.15
2022-11-05T20:17:02.414Z,6.68
2022-11-05T20:19:29.016Z,6.50
2022-11-05T20:22:02.038Z,6.85
2022-11-05T20:24:28.921Z,6.18
2022-11-05T20:26:59.117Z,6.55
2022-11-05T20:29:32.139Z,6.80
2022-11-05T20:32:02.431Z,6.78
2022-11-05T20:34:36.345Z,6.40
2022-11-05T20:37:03.261Z,7.13
2022-11-05T20:39:30.399Z,6.60
2022-11-05T20:42:02.734Z,6.68
2022-11-05T20:44:29.351Z,7.25
2022-11-05T20:46:56.646Z,6.65
2022-11-05T20:49:25.622Z,6.78
2022-11-05T20:51:52.848Z,6.00
2022-11-05T20:54:21.059Z,6.80
2022-11-05T20:56:48.252Z,6.80
2022-11-05T20:59:15.028Z,6.35
2022-11-05T21:01:41.954Z,6.93
2022-11-05T21:04:08.841Z,6.93
2022-11-05T21:06:35.861Z,5.80
2022-11-05T21:09:03.696Z,6.88
2022-11-05T21:11:50.325Z,7.70
2022-11-05T21:14:20.194Z,6.80
2022-11-05T21:16:51.008Z,6.07
2022-11-05T21:19:24.739Z,6.72
2022-11-05T21:21:51.352Z,6.65
2022-11-05T21:24:19.384Z,7.95
2022-11-05T21:26:47.157Z,8.05
2022-11-05T21:29:15.335Z,7.13
2022-11-05T21:31:43.723Z,7.32
2022-11-05T21:34:10.860Z,7.40
2022-11-05T21:36:37.604Z,8.25
2022-11-05T21:39:10.463Z,7.75
2022-11-05T21:41:44.010Z,8.18
2022-11-05T21:44:10.571Z,8.23
2022-11-05T21:46:37.874Z,8.32
2022-11-05T21:49:04.605Z,8.02
2022-11-05T21:51:51.745Z,8.23
2022-11-05T21:54:36.585Z,8.23
2022-11-05T21:57:27.223Z,8.45
2022-11-05T21:59:58.805Z,8.38
2022-11-05T22:02:28.331Z,9.55
2022-11-05T22:04:57.413Z,8.90
2022-11-05T22:07:31.040Z,8.27
2022-11-05T22:09:58.034Z,8.63
2022-11-05T22:12:25.003Z,8.63
2022-11-05T22:14:52.287Z,8.50
2022-11-05T22:17:22.031Z,9.27
2022-11-05T22:19:48.610Z,9.45
2022-11-05T22:22:15.342Z,9.20
2022-11-05T22:24:44.991Z,9.30
2022-11-05T22:27:14.413Z,9.60
2022-11-05T22:29:41.081Z,8.85
2022-11-05T22:32:17.512Z,8.77
2022-11-05T22:34:46.264Z,8.95
2022-11-05T22:37:13.641Z,8.60
2022-11-05T22:39:43.585Z,8.43
2022-11-05T22:42:10.490Z,9.32
2022-11-05T22:44:39.466Z,9.43
2022-11-05T22:47:07.504Z,8.82
2022-11-05T22:49:34.544Z,8.93
2022-11-05T22:52:01.380Z,7.85
2022-11-05T22:54:28.645Z,9.23
2022-11-05T22:56:57.896Z,9.35
2022-11-05T22:59:24.696Z,8.82
2022-11-05T23:01:56.445Z,8.85
2022-11-05T23:04:26.236Z,9.02
2022-11-05T23:07:14.229Z,8.57
2022-11-05T23:10:01.985Z,8.88
2022-11-05T23:12:34.094Z,8.98
2022-11-05T23:17:48.255Z,8.77
2022-11-05T23:20:37.115Z,8.85
2022-11-05T23:23:22.326Z,9.15
2022-11-05T23:25:49.106Z,8.77
2022-11-05T23:28:22.347Z,8.27
2022-11-05T23:31:07.436Z,7.68
2022-11-05T23:33:34.728Z,8.80
2022-11-05T23:36:20.441Z,8.88
2022-11-05T23:38:47.236Z,8.00
2022-11-05T23:41:32.458Z,8.77
2022-11-05T23:44:20.280Z,8.35
2022-11-05T23:47:05.250Z,8.75
2022-11-05T23:49:31.943Z,8.63
2022-11-05T23:52:00.600Z,8.30
2022-11-05T23:54:27.296Z,8.10
2022-11-05T23:56:53.802Z,8.23
2022-11-05T23:59:20.393Z,9.15
